Chassell, Michigan
Current Conditions -  °F | °C
As of 11:53 AM on Saturday 25 Oct 2014 (Local Time) from KCMX Reporting Station
Clear Clear  
Wind Chill: 51°   Ceiling: Unl
Heat Index: 51°   Visibility: 10mi
Dew Point: 36°   Wind: 33mph
Humidity: 56%   Direction: 270°W
Pressure: 29.72"   Gusts: 44mph
Location:  47.03°N, 88.53°W
Report Text: KCMX 251553Z AUTO 27029G38KT 10SM CLR 11/02 A2972 RMK AO2 PK WND 27039/1518 SLP068 T01060022
Loading
Personal Weather Stations






























Interactive Weather Map
Tropical Storm Tracking
New forecast layout! Learn more

10-Day Weather Forecast

Advertisements
Track Severe Weather on mobile